createdAt,value
2019-06-27T06:33:34.628Z,30.50
2019-06-27T06:36:03.046Z,30.20
2019-06-27T06:38:31.475Z,29.90
2019-06-27T06:40:59.942Z,29.70
2019-06-27T06:43:28.359Z,29.60
2019-06-27T06:45:56.790Z,29.50
2019-06-27T06:48:25.394Z,29.40
2019-06-27T06:50:53.811Z,29.30
2019-06-27T06:53:22.302Z,29.20
2019-06-27T06:55:50.916Z,29.10
2019-06-27T06:58:19.341Z,29.00
2019-06-27T07:01:01.084Z,29.10
2019-06-27T07:03:18.258Z,29.00
2019-06-27T07:05:46.635Z,29.00
2019-06-27T07:08:19.287Z,29.00
2019-06-27T07:10:47.417Z,28.90
2019-06-27T07:13:15.907Z,29.00
2019-06-27T07:15:44.332Z,29.00
2019-06-27T07:18:12.801Z,29.10
2019-06-27T07:20:41.655Z,29.20
2019-06-27T07:23:10.071Z,29.30
2019-06-27T07:25:38.515Z,29.30
2019-06-27T07:28:07.313Z,29.20
2019-06-27T07:30:35.732Z,29.20
2019-06-27T07:33:04.191Z,29.30
2019-06-27T07:35:32.667Z,29.50
2019-06-27T07:38:01.100Z,29.50
2019-06-27T07:40:29.554Z,29.60
2019-06-27T07:42:57.969Z,29.80
2019-06-27T07:45:26.391Z,29.80
2019-06-27T07:47:55.035Z,29.90
2019-06-27T07:50:23.439Z,30.00
2019-06-27T07:52:51.881Z,30.00
2019-06-27T07:55:20.395Z,30.10
2019-06-27T07:57:48.817Z,30.30
2019-06-27T08:00:17.250Z,30.30
2019-06-27T08:02:45.697Z,30.40
2019-06-27T08:05:14.194Z,30.50
2019-06-27T08:07:42.669Z,30.60
2019-06-27T08:10:11.115Z,30.70
2019-06-27T08:12:42.265Z,30.80
2019-06-27T08:15:09.599Z,30.80
2019-06-27T08:17:38.058Z,30.90
2019-06-27T08:20:07.127Z,31.00
2019-06-27T08:22:35.558Z,31.10
2019-06-27T08:25:05.952Z,31.20
2019-06-27T08:27:34.357Z,31.20
2019-06-27T08:30:03.147Z,31.20
2019-06-27T08:32:31.590Z,31.30
2019-06-27T08:35:00.031Z,31.30
2019-06-27T08:37:28.670Z,31.30
2019-06-27T08:39:57.128Z,31.40
2019-06-27T08:42:25.531Z,31.50
2019-06-27T08:44:53.959Z,31.70
2019-06-27T08:47:22.404Z,31.80
2019-06-27T08:49:50.825Z,31.90
2019-06-27T08:52:19.263Z,31.90
2019-06-27T08:54:47.707Z,32.00
2019-06-27T08:57:16.126Z,32.20
2019-06-27T08:59:44.537Z,32.30
2019-06-27T09:02:13.009Z,32.40
2019-06-27T09:04:41.435Z,32.50
2019-06-27T09:07:09.857Z,32.60
2019-06-27T09:09:38.308Z,32.70
2019-06-27T09:12:06.723Z,32.80
2019-06-27T09:14:35.153Z,32.80
2019-06-27T09:17:03.598Z,32.90
2019-06-27T09:19:32.017Z,32.90
2019-06-27T09:22:00.511Z,33.10
2019-06-27T09:24:28.962Z,33.20
2019-06-27T09:26:57.380Z,33.30
2019-06-27T09:29:25.804Z,33.40
2019-06-27T09:31:54.247Z,33.50
2019-06-27T09:34:23.045Z,33.70
2019-06-27T09:36:51.469Z,33.80
2019-06-27T09:39:19.919Z,33.80
2019-06-27T09:41:48.681Z,33.90
2019-06-27T09:44:17.092Z,34.00
2019-06-27T09:46:45.523Z,34.10
2019-06-27T09:49:13.959Z,34.20
2019-06-27T09:51:42.379Z,34.30
2019-06-27T09:54:10.827Z,34.50
2019-06-27T09:56:39.265Z,34.60
2019-06-27T09:59:07.678Z,34.70
2019-06-27T10:01:36.123Z,34.80
2019-06-27T10:04:04.543Z,34.90
2019-06-27T10:06:32.960Z,35.00
2019-06-27T10:09:01.415Z,35.00
2019-06-27T10:11:29.831Z,35.10
2019-06-27T10:13:58.256Z,35.00
2019-06-27T10:16:26.744Z,35.00
2019-06-27T10:18:55.131Z,35.00
2019-06-27T10:21:23.551Z,35.00
2019-06-27T10:23:52.168Z,35.00
2019-06-27T10:26:20.571Z,35.20
2019-06-27T10:28:49.064Z,35.10
2019-06-27T10:31:17.754Z,35.20
2019-06-27T10:33:46.177Z,35.10
2019-06-27T10:36:14.587Z,35.00
2019-06-27T10:38:43.050Z,35.10
2019-06-27T10:41:11.475Z,35.10
2019-06-27T10:43:39.966Z,34.90
2019-06-27T10:46:08.411Z,34.80
2019-06-27T10:48:36.843Z,34.90
2019-06-27T10:51:05.268Z,34.80
2019-06-27T10:53:33.715Z,34.60
2019-06-27T10:56:02.321Z,34.80
2019-06-27T10:58:30.733Z,35.00
2019-06-27T11:00:59.192Z,35.00
2019-06-27T11:03:27.618Z,34.80
2019-06-27T11:05:56.039Z,34.60
2019-06-27T11:08:24.547Z,34.70
2019-06-27T11:10:52.911Z,34.80
2019-06-27T11:13:21.341Z,34.60
2019-06-27T11:15:50.121Z,34.60
2019-06-27T11:18:21.282Z,34.70
2019-06-27T11:20:48.606Z,34.60
2019-06-27T11:23:17.053Z,34.60
2019-06-27T11:25:45.467Z,34.20
2019-06-27T11:28:13.896Z,34.10
2019-06-27T11:30:42.466Z,34.10
2019-06-27T11:33:11.019Z,34.10
2019-06-27T11:35:39.776Z,34.30
2019-06-27T11:38:08.209Z,34.30
2019-06-27T11:40:36.653Z,34.10
2019-06-27T11:43:05.078Z,34.00
2019-06-27T11:45:33.547Z,33.90
2019-06-27T11:48:02.022Z,33.80
2019-06-27T11:50:30.407Z,33.60
2019-06-27T11:52:58.883Z,33.60
2019-06-27T11:55:27.299Z,33.70
2019-06-27T11:57:56.692Z,33.90
2019-06-27T12:00:25.395Z,33.90
2019-06-27T12:02:53.798Z,34.10
2019-06-27T12:05:22.258Z,34.30
2019-06-27T12:07:50.689Z,34.50
2019-06-27T12:10:19.251Z,34.70
2019-06-27T12:12:47.686Z,34.90
2019-06-27T12:15:16.163Z,35.00
2019-06-27T12:17:44.584Z,34.90
2019-06-27T12:20:13.023Z,34.80
2019-06-27T12:22:41.496Z,34.70
2019-06-27T12:25:10.570Z,34.60
2019-06-27T12:27:39.047Z,34.70
2019-06-27T12:30:07.433Z,34.60
2019-06-27T12:32:50.429Z,34.70
2019-06-27T12:35:06.801Z,34.50
2019-06-27T12:37:35.235Z,34.50
2019-06-27T12:40:06.104Z,34.70
2019-06-27T12:42:36.289Z,34.60
2019-06-27T12:45:06.675Z,34.30
2019-06-27T12:47:35.099Z,34.20
2019-06-27T12:50:04.427Z,34.30
2019-06-27T12:52:33.118Z,34.10
2019-06-27T12:55:01.564Z,33.70
2019-06-27T12:57:30.015Z,33.70
2019-06-27T12:59:58.494Z,33.80
2019-06-27T13:02:26.928Z,33.90
2019-06-27T13:04:55.379Z,34.00
2019-06-27T13:07:23.823Z,34.10
2019-06-27T13:09:52.241Z,34.10
2019-06-27T13:12:20.691Z,34.30
2019-06-27T13:14:49.106Z,34.30
2019-06-27T13:17:17.528Z,34.10
2019-06-27T13:19:45.979Z,34.10
2019-06-27T13:22:14.412Z,34.00
2019-06-27T13:24:42.845Z,33.80
2019-06-27T13:27:11.323Z,33.60
2019-06-27T13:29:39.811Z,33.60
